sensor_id;sensor_type;location;lat;lon;timestamp;P1;P2;P0
30713;PMS7003;17465;47.934;33.430;2022-07-22T00:02:28;10.80;10.40;6.20
30713;PMS7003;17465;47.934;33.430;2022-07-22T00:04:59;9.00;8.20;4.80
30713;PMS7003;17465;47.934;33.430;2022-07-22T00:07:31;9.80;8.80;6.00
30713;PMS7003;17465;47.934;33.430;2022-07-22T00:10:02;8.00;8.00;5.20
30713;PMS7003;17465;47.934;33.430;2022-07-22T00:12:34;8.20;7.60;4.20
30713;PMS7003;17465;47.934;33.430;2022-07-22T00:15:06;8.20;8.20;5.40
30713;PMS7003;17465;47.934;33.430;2022-07-22T00:17:43;8.80;8.80;5.80
30713;PMS7003;17465;47.934;33.430;2022-07-22T00:20:14;10.20;10.20;5.80
30713;PMS7003;17465;47.934;33.430;2022-07-22T00:22:44;8.80;8.80;6.60
30713;PMS7003;17465;47.934;33.430;2022-07-22T00:25:15;12.40;10.40;6.60
30713;PMS7003;17465;47.934;33.430;2022-07-22T00:27:46;10.60;10.60;5.80
30713;PMS7003;17465;47.934;33.430;2022-07-22T00:30:20;12.20;10.20;7.20
30713;PMS7003;17465;47.934;33.430;2022-07-22T00:32:51;12.60;12.60;8.00
30713;PMS7003;17465;47.934;33.430;2022-07-22T00:35:22;10.60;10.60;7.00
30713;PMS7003;17465;47.934;33.430;2022-07-22T00:37:53;10.00;9.40;6.40
30713;PMS7003;17465;47.934;33.430;2022-07-22T00:40:24;11.00;9.40;7.00
30713;PMS7003;17465;47.934;33.430;2022-07-22T00:42:55;9.40;9.20;6.00
30713;PMS7003;17465;47.934;33.430;2022-07-22T00:45:25;9.40;9.40;7.40
30713;PMS7003;17465;47.934;33.430;2022-07-22T00:47:57;10.60;10.00;7.00
30713;PMS7003;17465;47.934;33.430;2022-07-22T00:50:28;13.20;13.20;8.20
30713;PMS7003;17465;47.934;33.430;2022-07-22T00:52:58;8.60;8.60;6.60
30713;PMS7003;17465;47.934;33.430;2022-07-22T00:55:30;6.00;5.00;1.80
30713;PMS7003;17465;47.934;33.430;2022-07-22T00:58:02;9.00;9.00;6.00
30713;PMS7003;17465;47.934;33.430;2022-07-22T01:00:33;10.20;9.80;7.00
30713;PMS7003;17465;47.934;33.430;2022-07-22T01:03:04;9.40;9.00;7.00
30713;PMS7003;17465;47.934;33.430;2022-07-22T01:05:34;8.00;8.00;4.60
30713;PMS7003;17465;47.934;33.430;2022-07-22T01:08:05;11.00;10.20;6.40
30713;PMS7003;17465;47.934;33.430;2022-07-22T01:10:36;8.00;8.00;5.00
30713;PMS7003;17465;47.934;33.430;2022-07-22T01:13:06;9.80;9.80;6.60
30713;PMS7003;17465;47.934;33.430;2022-07-22T01:15:37;10.00;9.60;4.40
30713;PMS7003;17465;47.934;33.430;2022-07-22T01:18:07;11.20;10.20;6.60
30713;PMS7003;17465;47.934;33.430;2022-07-22T01:20:40;8.60;8.60;6.00
30713;PMS7003;17465;47.934;33.430;2022-07-22T01:23:11;11.80;10.20;5.80
30713;PMS7003;17465;47.934;33.430;2022-07-22T01:25:41;9.40;9.40;7.00
30713;PMS7003;17465;47.934;33.430;2022-07-22T01:28:13;12.20;10.80;6.00
30713;PMS7003;17465;47.934;33.430;2022-07-22T01:30:44;10.60;10.60;6.80
30713;PMS7003;17465;47.934;33.430;2022-07-22T01:33:20;11.80;11.80;6.00
30713;PMS7003;17465;47.934;33.430;2022-07-22T01:35:50;9.00;9.00;5.40
30713;PMS7003;17465;47.934;33.430;2022-07-22T01:38:21;12.00;12.00;7.00
30713;PMS7003;17465;47.934;33.430;2022-07-22T01:40:53;10.00;10.00;6.40
30713;PMS7003;17465;47.934;33.430;2022-07-22T01:43:23;11.60;11.60;7.00
30713;PMS7003;17465;47.934;33.430;2022-07-22T01:45:54;9.60;9.60;7.40
30713;PMS7003;17465;47.934;33.430;2022-07-22T01:48:25;8.80;8.40;5.00
30713;PMS7003;17465;47.934;33.430;2022-07-22T01:50:57;10.00;10.00;5.40
30713;PMS7003;17465;47.934;33.430;2022-07-22T01:53:28;9.60;9.60;6.60
30713;PMS7003;17465;47.934;33.430;2022-07-22T01:55:58;9.00;9.00;5.60
30713;PMS7003;17465;47.934;33.430;2022-07-22T01:58:28;8.40;8.40;5.40
30713;PMS7003;17465;47.934;33.430;2022-07-22T02:01:01;9.40;9.40;5.80
30713;PMS7003;17465;47.934;33.430;2022-07-22T02:03:32;11.20;8.80;4.80
30713;PMS7003;17465;47.934;33.430;2022-07-22T02:06:03;10.40;10.40;6.00
30713;PMS7003;17465;47.934;33.430;2022-07-22T02:08:34;9.60;9.60;5.80
30713;PMS7003;17465;47.934;33.430;2022-07-22T02:11:05;12.80;12.00;8.20
30713;PMS7003;17465;47.934;33.430;2022-07-22T02:13:36;8.40;8.40;5.80
30713;PMS7003;17465;47.934;33.430;2022-07-22T02:16:07;11.80;10.60;6.00
30713;PMS7003;17465;47.934;33.430;2022-07-22T02:18:39;10.60;10.40;6.80
30713;PMS7003;17465;47.934;33.430;2022-07-22T02:21:10;10.00;10.00;6.40
30713;PMS7003;17465;47.934;33.430;2022-07-22T02:23:42;10.20;10.00;5.80
30713;PMS7003;17465;47.934;33.430;2022-07-22T02:26:12;10.80;10.00;7.00
30713;PMS7003;17465;47.934;33.430;2022-07-22T02:28:42;8.40;8.20;6.20
30713;PMS7003;17465;47.934;33.430;2022-07-22T02:31:13;10.80;10.00;6.60
30713;PMS7003;17465;47.934;33.430;2022-07-22T02:33:45;11.80;11.00;6.00
30713;PMS7003;17465;47.934;33.430;2022-07-22T02:36:15;10.20;10.20;5.40
30713;PMS7003;17465;47.934;33.430;2022-07-22T02:38:46;10.00;10.00;7.00
30713;PMS7003;17465;47.934;33.430;2022-07-22T02:41:18;8.00;8.00;6.40
30713;PMS7003;17465;47.934;33.430;2022-07-22T02:43:48;11.00;10.00;6.20
30713;PMS7003;17465;47.934;33.430;2022-07-22T02:46:18;13.80;13.60;9.00
30713;PMS7003;17465;47.934;33.430;2022-07-22T02:48:50;11.60;11.60;6.80
30713;PMS7003;17465;47.934;33.430;2022-07-22T02:51:21;12.60;12.60;7.40
30713;PMS7003;17465;47.934;33.430;2022-07-22T02:53:53;7.40;6.00;6.00
30713;PMS7003;17465;47.934;33.430;2022-07-22T02:56:23;13.40;12.80;9.20
30713;PMS7003;17465;47.934;33.430;2022-07-22T02:58:54;12.80;12.80;8.40
30713;PMS7003;17465;47.934;33.430;2022-07-22T03:01:25;15.80;14.60;8.20
30713;PMS7003;17465;47.934;33.430;2022-07-22T03:03:55;15.00;14.00;9.00
30713;PMS7003;17465;47.934;33.430;2022-07-22T03:06:26;12.20;12.20;6.20
30713;PMS7003;17465;47.934;33.430;2022-07-22T03:08:56;12.20;11.40;7.40
30713;PMS7003;17465;47.934;33.430;2022-07-22T03:11:28;12.00;11.20;8.40
30713;PMS7003;17465;47.934;33.430;2022-07-22T03:13:59;12.60;11.40;7.00
30713;PMS7003;17465;47.934;33.430;2022-07-22T03:16:29;14.80;14.80;8.80
30713;PMS7003;17465;47.934;33.430;2022-07-22T03:18:59;14.00;14.00;9.80
30713;PMS7003;17465;47.934;33.430;2022-07-22T03:21:30;11.80;10.20;7.00
30713;PMS7003;17465;47.934;33.430;2022-07-22T03:24:00;16.40;14.00;8.80
30713;PMS7003;17465;47.934;33.430;2022-07-22T03:26:31;16.40;16.40;7.20
30713;PMS7003;17465;47.934;33.430;2022-07-22T03:29:02;9.60;8.60;6.20
30713;PMS7003;17465;47.934;33.430;2022-07-22T03:31:33;12.00;12.00;7.60
30713;PMS7003;17465;47.934;33.430;2022-07-22T03:34:03;14.80;14.80;10.00
30713;PMS7003;17465;47.934;33.430;2022-07-22T03:36:33;17.80;14.20;9.40
30713;PMS7003;17465;47.934;33.430;2022-07-22T03:39:05;16.60;13.00;7.60
30713;PMS7003;17465;47.934;33.430;2022-07-22T03:41:39;15.00;15.00;8.00
30713;PMS7003;17465;47.934;33.430;2022-07-22T03:44:09;10.40;10.40;6.00
30713;PMS7003;17465;47.934;33.430;2022-07-22T03:46:39;14.80;14.60;8.60
30713;PMS7003;17465;47.934;33.430;2022-07-22T03:49:10;12.80;12.00;7.40
30713;PMS7003;17465;47.934;33.430;2022-07-22T03:51:41;14.00;14.00;9.60
30713;PMS7003;17465;47.934;33.430;2022-07-22T03:54:12;14.00;14.00;8.00
30713;PMS7003;17465;47.934;33.430;2022-07-22T03:56:42;16.40;16.00;10.40
30713;PMS7003;17465;47.934;33.430;2022-07-22T03:59:12;14.60;14.60;8.80
30713;PMS7003;17465;47.934;33.430;2022-07-22T04:01:43;17.00;15.20;10.60
30713;PMS7003;17465;47.934;33.430;2022-07-22T04:04:14;15.00;13.00;9.00
30713;PMS7003;17465;47.934;33.430;2022-07-22T04:06:44;13.80;13.00;9.00
30713;PMS7003;17465;47.934;33.430;2022-07-22T04:09:17;15.80;14.00;9.00
30713;PMS7003;17465;47.934;33.430;2022-07-22T04:11:48;13.80;10.60;6.60
30713;PMS7003;17465;47.934;33.430;2022-07-22T04:14:19;12.60;9.40;7.40
30713;PMS7003;17465;47.934;33.430;2022-07-22T04:16:50;13.60;13.60;8.00
30713;PMS7003;17465;47.934;33.430;2022-07-22T04:19:21;14.20;13.20;9.40
30713;PMS7003;17465;47.934;33.430;2022-07-22T04:21:51;13.00;13.00;7.40
30713;PMS7003;17465;47.934;33.430;2022-07-22T04:24:25;14.00;13.80;10.60
30713;PMS7003;17465;47.934;33.430;2022-07-22T04:26:56;13.60;13.60;8.60
30713;PMS7003;17465;47.934;33.430;2022-07-22T04:29:27;16.20;14.20;10.00
30713;PMS7003;17465;47.934;33.430;2022-07-22T04:31:57;17.20;15.00;8.60
30713;PMS7003;17465;47.934;33.430;2022-07-22T04:34:30;13.00;12.80;7.60
30713;PMS7003;17465;47.934;33.430;2022-07-22T04:37:01;10.00;10.00;7.00
30713;PMS7003;17465;47.934;33.430;2022-07-22T04:39:33;13.00;13.00;7.40
30713;PMS7003;17465;47.934;33.430;2022-07-22T04:42:04;14.40;12.40;7.80
30713;PMS7003;17465;47.934;33.430;2022-07-22T04:44:34;10.00;9.60;7.00
30713;PMS7003;17465;47.934;33.430;2022-07-22T04:47:05;9.20;9.00;5.40
30713;PMS7003;17465;47.934;33.430;2022-07-22T04:49:38;11.80;10.00;7.40
30713;PMS7003;17465;47.934;33.430;2022-07-22T04:52:09;8.00;7.80;5.20
30713;PMS7003;17465;47.934;33.430;2022-07-22T04:54:40;12.00;12.00;6.20
30713;PMS7003;17465;47.934;33.430;2022-07-22T04:57:10;10.20;10.20;7.60
30713;PMS7003;17465;47.934;33.430;2022-07-22T04:59:41;12.40;11.40;8.00
30713;PMS7003;17465;47.934;33.430;2022-07-22T05:02:11;9.40;9.40;6.20
30713;PMS7003;17465;47.934;33.430;2022-07-22T05:04:43;10.40;10.20;6.60
30713;PMS7003;17465;47.934;33.430;2022-07-22T05:07:13;12.20;11.00;7.40
30713;PMS7003;17465;47.934;33.430;2022-07-22T05:09:45;11.20;11.20;6.40
30713;PMS7003;17465;47.934;33.430;2022-07-22T05:12:15;9.60;9.20;7.20
30713;PMS7003;17465;47.934;33.430;2022-07-22T05:14:46;7.40;7.40;6.00
30713;PMS7003;17465;47.934;33.430;2022-07-22T05:17:17;9.20;9.20;5.80
30713;PMS7003;17465;47.934;33.430;2022-07-22T05:19:47;11.20;10.00;8.20
30713;PMS7003;17465;47.934;33.430;2022-07-22T05:22:18;11.80;10.60;7.60
30713;PMS7003;17465;47.934;33.430;2022-07-22T05:24:49;9.60;8.80;5.40
30713;PMS7003;17465;47.934;33.430;2022-07-22T05:27:20;14.00;14.00;8.00
30713;PMS7003;17465;47.934;33.430;2022-07-22T05:29:50;9.60;9.20;6.60
30713;PMS7003;17465;47.934;33.430;2022-07-22T05:32:21;10.80;10.80;7.40
30713;PMS7003;17465;47.934;33.430;2022-07-22T05:34:51;10.40;10.40;6.60
30713;PMS7003;17465;47.934;33.430;2022-07-22T05:37:22;9.80;9.80;5.80
30713;PMS7003;17465;47.934;33.430;2022-07-22T05:39:52;9.80;9.20;6.40
30713;PMS7003;17465;47.934;33.430;2022-07-22T05:42:22;11.60;10.00;7.00
30713;PMS7003;17465;47.934;33.430;2022-07-22T05:44:53;8.20;8.20;6.40
30713;PMS7003;17465;47.934;33.430;2022-07-22T05:47:23;9.40;8.60;5.80
30713;PMS7003;17465;47.934;33.430;2022-07-22T05:49:53;9.40;9.40;6.60
30713;PMS7003;17465;47.934;33.430;2022-07-22T05:52:23;8.20;8.20;5.60
30713;PMS7003;17465;47.934;33.430;2022-07-22T05:54:54;8.60;8.60;5.80
30713;PMS7003;17465;47.934;33.430;2022-07-22T05:57:24;8.80;8.80;5.00
30713;PMS7003;17465;47.934;33.430;2022-07-22T05:59:55;10.40;10.40;6.00
30713;PMS7003;17465;47.934;33.430;2022-07-22T06:02:25;8.40;8.20;5.20
30713;PMS7003;17465;47.934;33.430;2022-07-22T06:04:56;9.60;9.60;7.00
30713;PMS7003;17465;47.934;33.430;2022-07-22T06:07:27;11.00;11.00;7.20
30713;PMS7003;17465;47.934;33.430;2022-07-22T06:09:58;10.00;10.00;6.60
30713;PMS7003;17465;47.934;33.430;2022-07-22T06:12:30;10.60;9.80;6.20
30713;PMS7003;17465;47.934;33.430;2022-07-22T06:15:00;6.60;5.80;0.60
30713;PMS7003;17465;47.934;33.430;2022-07-22T06:17:32;11.60;9.60;7.60
30713;PMS7003;17465;47.934;33.430;2022-07-22T06:20:02;11.20;11.20;7.00
30713;PMS7003;17465;47.934;33.430;2022-07-22T06:22:34;10.40;9.40;6.60
30713;PMS7003;17465;47.934;33.430;2022-07-22T06:25:04;9.60;9.60;6.80
30713;PMS7003;17465;47.934;33.430;2022-07-22T06:27:37;8.40;8.40;6.00
30713;PMS7003;17465;47.934;33.430;2022-07-22T06:30:07;6.60;6.60;4.00
30713;PMS7003;17465;47.934;33.430;2022-07-22T06:32:40;10.00;9.00;5.80
30713;PMS7003;17465;47.934;33.430;2022-07-22T06:35:12;13.20;11.20;7.00
30713;PMS7003;17465;47.934;33.430;2022-07-22T06:37:42;9.00;8.00;4.60
30713;PMS7003;17465;47.934;33.430;2022-07-22T06:40:14;10.60;10.60;6.40
30713;PMS7003;17465;47.934;33.430;2022-07-22T06:42:45;8.40;8.00;6.00
30713;PMS7003;17465;47.934;33.430;2022-07-22T06:45:16;10.40;9.40;6.00
30713;PMS7003;17465;47.934;33.430;2022-07-22T06:47:47;9.00;9.00;6.40
30713;PMS7003;17465;47.934;33.430;2022-07-22T06:50:17;9.60;7.80;3.80
30713;PMS7003;17465;47.934;33.430;2022-07-22T06:52:48;4.00;4.00;2.00
30713;PMS7003;17465;47.934;33.430;2022-07-22T06:55:18;7.00;6.60;4.60
30713;PMS7003;17465;47.934;33.430;2022-07-22T06:57:49;7.80;7.80;5.00
30713;PMS7003;17465;47.934;33.430;2022-07-22T07:00:19;5.20;5.20;3.80
30713;PMS7003;17465;47.934;33.430;2022-07-22T07:02:49;7.40;7.40;5.00
30713;PMS7003;17465;47.934;33.430;2022-07-22T07:05:21;5.20;5.20;3.80
30713;PMS7003;17465;47.934;33.430;2022-07-22T07:07:54;6.80;6.60;4.60
30713;PMS7003;17465;47.934;33.430;2022-07-22T07:10:25;6.00;6.00;4.00
30713;PMS7003;17465;47.934;33.430;2022-07-22T07:12:56;6.80;6.80;4.80
30713;PMS7003;17465;47.934;33.430;2022-07-22T07:15:29;8.60;7.80;6.00
30713;PMS7003;17465;47.934;33.430;2022-07-22T07:17:59;5.80;5.80;4.80
30713;PMS7003;17465;47.934;33.430;2022-07-22T07:20:31;6.20;6.20;4.60
30713;PMS7003;17465;47.934;33.430;2022-07-22T07:23:02;6.20;6.20;5.00
30713;PMS7003;17465;47.934;33.430;2022-07-22T07:25:34;5.80;5.80;4.60
30713;PMS7003;17465;47.934;33.430;2022-07-22T07:28:05;6.40;6.40;5.00
30713;PMS7003;17465;47.934;33.430;2022-07-22T07:30:40;6.60;6.60;5.20
30713;PMS7003;17465;47.934;33.430;2022-07-22T07:33:11;6.00;6.00;3.80
30713;PMS7003;17465;47.934;33.430;2022-07-22T07:35:41;7.60;7.20;5.40
30713;PMS7003;17465;47.934;33.430;2022-07-22T07:38:12;7.80;7.80;5.40
30713;PMS7003;17465;47.934;33.430;2022-07-22T07:40:42;6.80;6.80;5.20
30713;PMS7003;17465;47.934;33.430;2022-07-22T07:43:13;7.60;7.60;5.40
30713;PMS7003;17465;47.934;33.430;2022-07-22T07:45:43;7.80;7.80;6.00
30713;PMS7003;17465;47.934;33.430;2022-07-22T07:48:14;7.80;7.80;4.80
30713;PMS7003;17465;47.934;33.430;2022-07-22T07:50:44;7.80;7.80;6.00
30713;PMS7003;17465;47.934;33.430;2022-07-22T07:53:15;5.40;5.40;4.00
30713;PMS7003;17465;47.934;33.430;2022-07-22T07:55:47;6.20;6.20;4.00
30713;PMS7003;17465;47.934;33.430;2022-07-22T07:58:19;9.20;9.00;7.40
30713;PMS7003;17465;47.934;33.430;2022-07-22T08:00:50;7.40;7.40;5.00
30713;PMS7003;17465;47.934;33.430;2022-07-22T08:03:21;7.20;7.20;6.00
30713;PMS7003;17465;47.934;33.430;2022-07-22T08:05:52;7.00;7.00;5.40
30713;PMS7003;17465;47.934;33.430;2022-07-22T08:08:23;5.00;5.00;3.40
30713;PMS7003;17465;47.934;33.430;2022-07-22T08:10:54;6.00;6.00;4.80
30713;PMS7003;17465;47.934;33.430;2022-07-22T08:13:26;5.80;5.80;5.00
30713;PMS7003;17465;47.934;33.430;2022-07-22T08:15:58;4.60;4.00;2.20
30713;PMS7003;17465;47.934;33.430;2022-07-22T08:18:29;7.00;7.00;5.80
30713;PMS7003;17465;47.934;33.430;2022-07-22T08:21:01;6.00;5.20;3.00
30713;PMS7003;17465;47.934;33.430;2022-07-22T08:23:32;6.00;6.00;4.40
30713;PMS7003;17465;47.934;33.430;2022-07-22T08:26:03;8.60;8.00;6.20
30713;PMS7003;17465;47.934;33.430;2022-07-22T08:28:33;7.80;7.20;6.00
30713;PMS7003;17465;47.934;33.430;2022-07-22T08:31:04;6.80;5.40;3.80
30713;PMS7003;17465;47.934;33.430;2022-07-22T08:33:34;7.00;7.00;6.00
30713;PMS7003;17465;47.934;33.430;2022-07-22T08:36:06;8.60;8.60;6.40
30713;PMS7003;17465;47.934;33.430;2022-07-22T08:38:38;7.80;7.20;4.60
30713;PMS7003;17465;47.934;33.430;2022-07-22T08:41:08;6.00;5.80;4.00
30713;PMS7003;17465;47.934;33.430;2022-07-22T08:43:40;6.40;6.00;4.20
30713;PMS7003;17465;47.934;33.430;2022-07-22T08:46:11;7.20;7.20;5.00
30713;PMS7003;17465;47.934;33.430;2022-07-22T08:48:42;5.60;5.60;4.00
30713;PMS7003;17465;47.934;33.430;2022-07-22T08:51:15;6.20;6.20;5.00
30713;PMS7003;17465;47.934;33.430;2022-07-22T08:53:45;6.00;6.00;4.20
30713;PMS7003;17465;47.934;33.430;2022-07-22T08:56:15;9.20;9.20;6.20
30713;PMS7003;17465;47.934;33.430;2022-07-22T08:58:46;6.80;6.80;5.00
30713;PMS7003;17465;47.934;33.430;2022-07-22T09:01:17;7.20;7.20;5.80
30713;PMS7003;17465;47.934;33.430;2022-07-22T09:03:52;7.00;7.00;6.40
30713;PMS7003;17465;47.934;33.430;2022-07-22T09:06:27;8.80;8.00;6.80
30713;PMS7003;17465;47.934;33.430;2022-07-22T09:09:03;6.40;6.40;5.00
30713;PMS7003;17465;47.934;33.430;2022-07-22T09:11:37;7.40;6.20;5.00
30713;PMS7003;17465;47.934;33.430;2022-07-22T09:14:08;7.80;7.00;5.20
30713;PMS7003;17465;47.934;33.430;2022-07-22T09:19:17;7.00;7.00;5.60
30713;PMS7003;17465;47.934;33.430;2022-07-22T09:21:50;7.00;7.00;5.00
30713;PMS7003;17465;47.934;33.430;2022-07-22T09:24:30;7.00;7.00;6.00
30713;PMS7003;17465;47.934;33.430;2022-07-22T09:26:58;6.80;6.80;6.00
30713;PMS7003;17465;47.934;33.430;2022-07-22T09:29:29;6.00;6.00;4.80
30713;PMS7003;17465;47.934;33.430;2022-07-22T09:32:02;5.80;5.80;4.20
30713;PMS7003;17465;47.934;33.430;2022-07-22T09:34:34;7.20;6.00;4.40
30713;PMS7003;17465;47.934;33.430;2022-07-22T09:37:05;5.60;5.60;4.00
30713;PMS7003;17465;47.934;33.430;2022-07-22T09:39:35;7.00;6.00;4.00
30713;PMS7003;17465;47.934;33.430;2022-07-22T09:42:06;4.60;4.60;4.00
30713;PMS7003;17465;47.934;33.430;2022-07-22T09:44:37;5.80;5.80;4.20
30713;PMS7003;17465;47.934;33.430;2022-07-22T09:47:26;6.20;5.40;4.00
30713;PMS7003;17465;47.934;33.430;2022-07-22T09:50:00;5.00;5.00;4.00
30713;PMS7003;17465;47.934;33.430;2022-07-22T09:52:31;5.80;5.80;5.00
30713;PMS7003;17465;47.934;33.430;2022-07-22T09:55:01;5.80;5.80;3.60
30713;PMS7003;17465;47.934;33.430;2022-07-22T09:57:34;5.80;5.80;4.60
30713;PMS7003;17465;47.934;33.430;2022-07-22T10:00:05;6.80;6.80;6.00
30713;PMS7003;17465;47.934;33.430;2022-07-22T10:02:46;3.60;2.80;2.20
30713;PMS7003;17465;47.934;33.430;2022-07-22T10:05:14;4.00;4.00;3.60
30713;PMS7003;17465;47.934;33.430;2022-07-22T10:07:47;7.20;7.20;5.80
30713;PMS7003;17465;47.934;33.430;2022-07-22T10:10:20;4.20;4.00;3.40
30713;PMS7003;17465;47.934;33.430;2022-07-22T10:12:58;5.20;5.00;4.00
30713;PMS7003;17465;47.934;33.430;2022-07-22T10:15:34;7.00;7.00;5.00
30713;PMS7003;17465;47.934;33.430;2022-07-22T10:18:09;6.20;5.40;3.40
30713;PMS7003;17465;47.934;33.430;2022-07-22T10:20:42;3.40;3.40;2.20
30713;PMS7003;17465;47.934;33.430;2022-07-22T10:23:15;4.80;4.80;3.80
30713;PMS7003;17465;47.934;33.430;2022-07-22T10:25:50;5.80;5.60;5.00
30713;PMS7003;17465;47.934;33.430;2022-07-22T10:28:24;6.20;5.40;4.00
30713;PMS7003;17465;47.934;33.430;2022-07-22T10:31:17;5.00;5.00;3.60
30713;PMS7003;17465;47.934;33.430;2022-07-22T10:33:57;6.20;6.20;4.80
30713;PMS7003;17465;47.934;33.430;2022-07-22T10:39:07;5.80;5.80;4.80
30713;PMS7003;17465;47.934;33.430;2022-07-22T10:41:48;6.20;6.20;5.00
30713;PMS7003;17465;47.934;33.430;2022-07-22T10:53:20;5.60;5.60;4.20
30713;PMS7003;17465;47.934;33.430;2022-07-22T10:59:13;6.20;6.20;5.60
30713;PMS7003;17465;47.934;33.430;2022-07-22T11:01:54;6.00;6.00;4.80
30713;PMS7003;17465;47.934;33.430;2022-07-22T11:04:27;6.00;6.00;4.00
30713;PMS7003;17465;47.934;33.430;2022-07-22T11:07:02;7.40;7.40;6.00
30713;PMS7003;17465;47.934;33.430;2022-07-22T11:09:36;5.00;5.00;4.20
30713;PMS7003;17465;47.934;33.430;2022-07-22T11:12:17;4.00;4.00;3.00
30713;PMS7003;17465;47.934;33.430;2022-07-22T11:14:51;5.80;5.80;4.40
30713;PMS7003;17465;47.934;33.430;2022-07-22T11:17:36;5.60;5.60;3.60
30713;PMS7003;17465;47.934;33.430;2022-07-22T11:20:23;6.00;5.60;4.20
30713;PMS7003;17465;47.934;33.430;2022-07-22T11:22:58;4.20;4.20;3.40
30713;PMS7003;17465;47.934;33.430;2022-07-22T11:25:45;6.00;6.00;5.00
30713;PMS7003;17465;47.934;33.430;2022-07-22T11:28:18;6.20;6.20;4.20
30713;PMS7003;17465;47.934;33.430;2022-07-22T11:31:16;5.60;5.60;3.40
30713;PMS7003;17465;47.934;33.430;2022-07-22T11:33:39;6.00;5.00;3.60
30713;PMS7003;17465;47.934;33.430;2022-07-22T11:36:11;6.60;6.60;5.00
30713;PMS7003;17465;47.934;33.430;2022-07-22T11:38:48;5.00;5.00;4.00
30713;PMS7003;17465;47.934;33.430;2022-07-22T11:41:22;6.80;6.80;5.00
30713;PMS7003;17465;47.934;33.430;2022-07-22T11:43:59;5.00;5.00;3.80
30713;PMS7003;17465;47.934;33.430;2022-07-22T11:46:39;5.00;5.00;4.00
30713;PMS7003;17465;47.934;33.430;2022-07-22T11:49:35;5.60;5.60;4.00
30713;PMS7003;17465;47.934;33.430;2022-07-22T11:52:08;4.00;4.00;2.60
30713;PMS7003;17465;47.934;33.430;2022-07-22T11:54:40;6.80;6.80;5.80
30713;PMS7003;17465;47.934;33.430;2022-07-22T11:57:14;6.00;6.00;4.80
30713;PMS7003;17465;47.934;33.430;2022-07-22T11:59:44;5.40;5.40;3.00
30713;PMS7003;17465;47.934;33.430;2022-07-22T12:02:20;5.80;5.80;4.80
30713;PMS7003;17465;47.934;33.430;2022-07-22T12:04:48;5.80;5.80;4.80
30713;PMS7003;17465;47.934;33.430;2022-07-22T12:07:21;4.40;4.40;2.80
30713;PMS7003;17465;47.934;33.430;2022-07-22T12:09:51;5.00;5.00;4.20
30713;PMS7003;17465;47.934;33.430;2022-07-22T12:12:38;6.20;6.20;5.40
30713;PMS7003;17465;47.934;33.430;2022-07-22T12:15:10;6.00;6.00;3.80
30713;PMS7003;17465;47.934;33.430;2022-07-22T12:17:44;6.40;6.40;5.40
30713;PMS7003;17465;47.934;33.430;2022-07-22T12:20:15;6.00;6.00;3.80
30713;PMS7003;17465;47.934;33.430;2022-07-22T12:22:45;5.40;5.40;4.00
30713;PMS7003;17465;47.934;33.430;2022-07-22T12:25:16;7.00;7.00;4.40
30713;PMS7003;17465;47.934;33.430;2022-07-22T12:27:59;5.00;5.00;4.20
30713;PMS7003;17465;47.934;33.430;2022-07-22T12:30:30;6.20;5.00;4.00
30713;PMS7003;17465;47.934;33.430;2022-07-22T12:33:01;6.00;6.00;5.00
30713;PMS7003;17465;47.934;33.430;2022-07-22T12:35:33;5.80;5.80;4.60
30713;PMS7003;17465;47.934;33.430;2022-07-22T12:38:12;5.20;4.00;3.00
30713;PMS7003;17465;47.934;33.430;2022-07-22T12:40:39;6.20;6.20;5.60
30713;PMS7003;17465;47.934;33.430;2022-07-22T12:43:10;6.40;6.40;4.60
30713;PMS7003;17465;47.934;33.430;2022-07-22T12:45:43;5.80;5.80;5.00
30713;PMS7003;17465;47.934;33.430;2022-07-22T12:48:13;6.40;6.00;5.00
30713;PMS7003;17465;47.934;33.430;2022-07-22T12:50:57;7.40;7.00;5.00
30713;PMS7003;17465;47.934;33.430;2022-07-22T12:53:28;7.00;7.00;5.20
30713;PMS7003;17465;47.934;33.430;2022-07-22T12:56:04;8.80;8.00;5.00
30713;PMS7003;17465;47.934;33.430;2022-07-22T12:58:35;6.80;6.80;4.00
30713;PMS7003;17465;47.934;33.430;2022-07-22T13:01:18;7.00;6.60;5.00
30713;PMS7003;17465;47.934;33.430;2022-07-22T13:03:45;5.60;5.60;4.40
30713;PMS7003;17465;47.934;33.430;2022-07-22T13:06:20;5.00;5.00;3.60
30713;PMS7003;17465;47.934;33.430;2022-07-22T13:08:53;4.60;4.60;3.00
30713;PMS7003;17465;47.934;33.430;2022-07-22T13:11:24;3.00;3.00;1.80
30713;PMS7003;17465;47.934;33.430;2022-07-22T13:13:54;5.20;5.20;4.00
30713;PMS7003;17465;47.934;33.430;2022-07-22T13:16:25;4.40;4.40;3.20
30713;PMS7003;17465;47.934;33.430;2022-07-22T13:18:56;3.00;3.00;2.20
30713;PMS7003;17465;47.934;33.430;2022-07-22T13:21:29;6.00;6.00;4.60
30713;PMS7003;17465;47.934;33.430;2022-07-22T13:23:59;5.00;5.00;4.20
30713;PMS7003;17465;47.934;33.430;2022-07-22T13:26:30;6.40;6.40;4.80
30713;PMS7003;17465;47.934;33.430;2022-07-22T13:29:01;5.20;5.20;4.00
30713;PMS7003;17465;47.934;33.430;2022-07-22T13:31:45;4.60;4.00;2.00
30713;PMS7003;17465;47.934;33.430;2022-07-22T13:34:22;5.80;5.40;4.00
30713;PMS7003;17465;47.934;33.430;2022-07-22T13:36:53;4.80;4.80;4.00
30713;PMS7003;17465;47.934;33.430;2022-07-22T13:39:23;4.00;4.00;2.80
30713;PMS7003;17465;47.934;33.430;2022-07-22T13:41:53;4.20;4.20;3.60
30713;PMS7003;17465;47.934;33.430;2022-07-22T13:44:24;6.20;6.20;5.60
30713;PMS7003;17465;47.934;33.430;2022-07-22T13:46:59;5.60;5.60;4.00
30713;PMS7003;17465;47.934;33.430;2022-07-22T13:49:28;5.40;5.40;4.00
30713;PMS7003;17465;47.934;33.430;2022-07-22T13:52:06;3.00;3.00;2.60
30713;PMS7003;17465;47.934;33.430;2022-07-22T13:54:35;0.00;0.00;0.00
30713;PMS7003;17465;47.934;33.430;2022-07-22T13:57:05;6.20;6.00;5.00
30713;PMS7003;17465;47.934;33.430;2022-07-22T13:59:39;6.00;6.00;4.80
30713;PMS7003;17465;47.934;33.430;2022-07-22T14:02:17;6.80;6.80;5.40
30713;PMS7003;17465;47.934;33.430;2022-07-22T14:05:26;8.00;6.60;5.60
30713;PMS7003;17465;47.934;33.430;2022-07-22T14:07:56;5.80;5.80;3.40
30713;PMS7003;17465;47.934;33.430;2022-07-22T14:10:27;8.60;7.40;6.20
30713;PMS7003;17465;47.934;33.430;2022-07-22T14:13:01;6.80;6.80;5.40
30713;PMS7003;17465;47.934;33.430;2022-07-22T14:15:33;6.40;6.40;5.00
30713;PMS7003;17465;47.934;33.430;2022-07-22T14:18:04;8.20;8.20;7.00
30713;PMS7003;17465;47.934;33.430;2022-07-22T14:20:38;5.20;5.20;3.20
30713;PMS7003;17465;47.934;33.430;2022-07-22T14:23:09;6.20;6.20;4.60
30713;PMS7003;17465;47.934;33.430;2022-07-22T14:28:57;6.00;6.00;5.00
30713;PMS7003;17465;47.934;33.430;2022-07-22T14:31:28;5.80;5.80;3.60
30713;PMS7003;17465;47.934;33.430;2022-07-22T14:33:58;5.00;5.00;3.20
30713;PMS7003;17465;47.934;33.430;2022-07-22T14:36:29;6.80;6.80;5.60
30713;PMS7003;17465;47.934;33.430;2022-07-22T14:39:00;6.60;6.60;4.00
30713;PMS7003;17465;47.934;33.430;2022-07-22T14:41:30;5.00;5.00;2.20
30713;PMS7003;17465;47.934;33.430;2022-07-22T14:44:01;6.20;5.20;3.20
30713;PMS7003;17465;47.934;33.430;2022-07-22T14:46:32;6.60;6.60;5.80
30713;PMS7003;17465;47.934;33.430;2022-07-22T14:49:03;7.00;7.00;5.20
30713;PMS7003;17465;47.934;33.430;2022-07-22T14:51:35;6.60;6.60;5.60
30713;PMS7003;17465;47.934;33.430;2022-07-22T14:54:06;7.00;7.00;5.20